EKVA weather

CLOSED Vandel Air Base
Vandel, South Denmark, Denmark

Public forecast

Using degrees Celsius for public forecast. Weather courtesy of forecast.io.

METAR (pilot weather report)

Closest report is Billund Airport, 3.2 nm (5.8 km) NW. Retrieved 2019/05/25 07:20 UTC (0 seconds ago):

EKBI 250720Z AUTO 29012KT 9999 BKN015/// 12/08 Q1012

TAF (pilot weather forecast)

Closest forecast is Billund Airport, 3.2 nm (5.8 km) NW. Retrieved 2019/05/25 06:00 UTC (1 hour ago):

TAF EKCH 250513Z 2506/2606 27012KT 9999 BKN020= TAF EKBI 250513Z 2506/2606 28012KT 9999 BKN012 BECMG 2506/2508 BKN025 TEMPO 2509/2517 29015G25KT TEMPO 2521/2606 BKN012